sensor_id;sensor_type;location;lat;lon;timestamp;P1;P2;P0
72023;PMS5003;59889;50.700;5.440;2023-02-01T00:00:46;4;4;
72023;PMS5003;59889;50.700;5.440;2023-02-01T00:03:11;3;3;
72023;PMS5003;59889;50.700;5.440;2023-02-01T00:05:36;4;4;
72023;PMS5003;59889;50.700;5.440;2023-02-01T00:08:01;4;3;
72023;PMS5003;59889;50.700;5.440;2023-02-01T00:10:26;5;4;
72023;PMS5003;59889;50.700;5.440;2023-02-01T00:12:51;3;3;
72023;PMS5003;59889;50.700;5.440;2023-02-01T00:15:16;4;4;
72023;PMS5003;59889;50.700;5.440;2023-02-01T00:17:41;4;4;
72023;PMS5003;59889;50.700;5.440;2023-02-01T00:20:07;2;2;
72023;PMS5003;59889;50.700;5.440;2023-02-01T00:22:32;5;5;
72023;PMS5003;59889;50.700;5.440;2023-02-01T00:24:57;4;4;
72023;PMS5003;59889;50.700;5.440;2023-02-01T00:27:22;2;2;
72023;PMS5003;59889;50.700;5.440;2023-02-01T00:29:47;4;4;
72023;PMS5003;59889;50.700;5.440;2023-02-01T00:32:12;3;3;
72023;PMS5003;59889;50.700;5.440;2023-02-01T00:34:37;4;4;
72023;PMS5003;59889;50.700;5.440;2023-02-01T00:37:02;3;3;
72023;PMS5003;59889;50.700;5.440;2023-02-01T00:39:27;2;2;
72023;PMS5003;59889;50.700;5.440;2023-02-01T00:41:53;3;3;
72023;PMS5003;59889;50.700;5.440;2023-02-01T00:44:18;3;3;
72023;PMS5003;59889;50.700;5.440;2023-02-01T00:46:43;4;4;
72023;PMS5003;59889;50.700;5.440;2023-02-01T00:49:18;3;3;
72023;PMS5003;59889;50.700;5.440;2023-02-01T00:51:33;2;2;
72023;PMS5003;59889;50.700;5.440;2023-02-01T00:53:59;4;4;
72023;PMS5003;59889;50.700;5.440;2023-02-01T00:56:23;5;4;
72023;PMS5003;59889;50.700;5.440;2023-02-01T00:58:48;3;3;
72023;PMS5003;59889;50.700;5.440;2023-02-01T01:01:15;3;3;
72023;PMS5003;59889;50.700;5.440;2023-02-01T01:03:40;4;3;
72023;PMS5003;59889;50.700;5.440;2023-02-01T01:06:05;3;3;
72023;PMS5003;59889;50.700;5.440;2023-02-01T01:08:29;2;2;
72023;PMS5003;59889;50.700;5.440;2023-02-01T01:10:54;2;2;
72023;PMS5003;59889;50.700;5.440;2023-02-01T01:13:19;3;3;
72023;PMS5003;59889;50.700;5.440;2023-02-01T01:15:44;3;3;
72023;PMS5003;59889;50.700;5.440;2023-02-01T01:18:10;4;4;
72023;PMS5003;59889;50.700;5.440;2023-02-01T01:20:35;3;3;
72023;PMS5003;59889;50.700;5.440;2023-02-01T01:23:00;3;3;
72023;PMS5003;59889;50.700;5.440;2023-02-01T01:25:25;4;4;
72023;PMS5003;59889;50.700;5.440;2023-02-01T01:27:50;4;4;
72023;PMS5003;59889;50.700;5.440;2023-02-01T01:30:16;4;4;
72023;PMS5003;59889;50.700;5.440;2023-02-01T01:32:40;5;5;
72023;PMS5003;59889;50.700;5.440;2023-02-01T01:35:06;3;3;
72023;PMS5003;59889;50.700;5.440;2023-02-01T01:37:31;5;5;
72023;PMS5003;59889;50.700;5.440;2023-02-01T01:39:55;3;2;
72023;PMS5003;59889;50.700;5.440;2023-02-01T01:42:21;3;3;
72023;PMS5003;59889;50.700;5.440;2023-02-01T01:47:11;4;4;
72023;PMS5003;59889;50.700;5.440;2023-02-01T01:49:36;4;3;
72023;PMS5003;59889;50.700;5.440;2023-02-01T01:52:01;3;3;
72023;PMS5003;59889;50.700;5.440;2023-02-01T01:54:27;4;3;
72023;PMS5003;59889;50.700;5.440;2023-02-01T01:56:52;5;4;
72023;PMS5003;59889;50.700;5.440;2023-02-01T01:59:16;5;4;
72023;PMS5003;59889;50.700;5.440;2023-02-01T02:01:41;6;5;
72023;PMS5003;59889;50.700;5.440;2023-02-01T02:04:07;2;2;
72023;PMS5003;59889;50.700;5.440;2023-02-01T02:06:34;4;4;
72023;PMS5003;59889;50.700;5.440;2023-02-01T02:08:57;4;4;
72023;PMS5003;59889;50.700;5.440;2023-02-01T02:11:22;3;3;
72023;PMS5003;59889;50.700;5.440;2023-02-01T02:13:48;6;4;
72023;PMS5003;59889;50.700;5.440;2023-02-01T02:16:19;4;4;
72023;PMS5003;59889;50.700;5.440;2023-02-01T02:18:39;5;5;
72023;PMS5003;59889;50.700;5.440;2023-02-01T02:23:38;4;4;
72023;PMS5003;59889;50.700;5.440;2023-02-01T02:28:27;2;2;
72023;PMS5003;59889;50.700;5.440;2023-02-01T02:30:48;3;3;
72023;PMS5003;59889;50.700;5.440;2023-02-01T02:35:34;5;4;
72023;PMS5003;59889;50.700;5.440;2023-02-01T02:38:01;5;5;
72023;PMS5003;59889;50.700;5.440;2023-02-01T02:40:25;5;3;
72023;PMS5003;59889;50.700;5.440;2023-02-01T02:42:56;5;5;
72023;PMS5003;59889;50.700;5.440;2023-02-01T02:45:16;5;3;
72023;PMS5003;59889;50.700;5.440;2023-02-01T02:47:41;4;4;
72023;PMS5003;59889;50.700;5.440;2023-02-01T02:50:05;3;3;
72023;PMS5003;59889;50.700;5.440;2023-02-01T02:52:29;4;4;
72023;PMS5003;59889;50.700;5.440;2023-02-01T02:54:54;5;4;
72023;PMS5003;59889;50.700;5.440;2023-02-01T02:57:20;5;5;
72023;PMS5003;59889;50.700;5.440;2023-02-01T02:59:44;3;3;
72023;PMS5003;59889;50.700;5.440;2023-02-01T03:02:10;5;5;
72023;PMS5003;59889;50.700;5.440;2023-02-01T03:04:35;4;4;
72023;PMS5003;59889;50.700;5.440;2023-02-01T03:09:26;6;5;
72023;PMS5003;59889;50.700;5.440;2023-02-01T03:11:51;5;5;
72023;PMS5003;59889;50.700;5.440;2023-02-01T03:14:15;3;3;
72023;PMS5003;59889;50.700;5.440;2023-02-01T03:16:40;5;5;
72023;PMS5003;59889;50.700;5.440;2023-02-01T03:19:06;3;3;
72023;PMS5003;59889;50.700;5.440;2023-02-01T03:21:32;6;5;
72023;PMS5003;59889;50.700;5.440;2023-02-01T03:23:56;4;4;
72023;PMS5003;59889;50.700;5.440;2023-02-01T03:26:21;3;3;
72023;PMS5003;59889;50.700;5.440;2023-02-01T03:28:47;4;4;
72023;PMS5003;59889;50.700;5.440;2023-02-01T03:31:11;2;2;
72023;PMS5003;59889;50.700;5.440;2023-02-01T03:33:36;4;4;
72023;PMS5003;59889;50.700;5.440;2023-02-01T03:36:04;4;4;
72023;PMS5003;59889;50.700;5.440;2023-02-01T03:38:27;4;4;
72023;PMS5003;59889;50.700;5.440;2023-02-01T03:40:52;4;4;
72023;PMS5003;59889;50.700;5.440;2023-02-01T03:43:17;5;5;
72023;PMS5003;59889;50.700;5.440;2023-02-01T03:45:43;3;3;
72023;PMS5003;59889;50.700;5.440;2023-02-01T03:48:07;5;5;
72023;PMS5003;59889;50.700;5.440;2023-02-01T03:50:32;4;4;
72023;PMS5003;59889;50.700;5.440;2023-02-01T03:52:58;6;5;
72023;PMS5003;59889;50.700;5.440;2023-02-01T03:55:22;4;4;
72023;PMS5003;59889;50.700;5.440;2023-02-01T03:57:51;4;4;
72023;PMS5003;59889;50.700;5.440;2023-02-01T04:00:15;4;4;
72023;PMS5003;59889;50.700;5.440;2023-02-01T04:02:37;3;3;
72023;PMS5003;59889;50.700;5.440;2023-02-01T04:05:03;5;3;
72023;PMS5003;59889;50.700;5.440;2023-02-01T04:07:28;3;3;
72023;PMS5003;59889;50.700;5.440;2023-02-01T04:09:53;4;4;
72023;PMS5003;59889;50.700;5.440;2023-02-01T04:12:18;5;5;
72023;PMS5003;59889;50.700;5.440;2023-02-01T04:14:43;4;4;
72023;PMS5003;59889;50.700;5.440;2023-02-01T04:17:08;5;5;
72023;PMS5003;59889;50.700;5.440;2023-02-01T04:19:33;3;3;
72023;PMS5003;59889;50.700;5.440;2023-02-01T04:21:58;3;3;
72023;PMS5003;59889;50.700;5.440;2023-02-01T04:24:23;4;4;
72023;PMS5003;59889;50.700;5.440;2023-02-01T04:26:48;4;4;
72023;PMS5003;59889;50.700;5.440;2023-02-01T04:29:14;4;4;
72023;PMS5003;59889;50.700;5.440;2023-02-01T04:31:39;4;4;
72023;PMS5003;59889;50.700;5.440;2023-02-01T04:34:04;5;4;
72023;PMS5003;59889;50.700;5.440;2023-02-01T04:36:29;4;4;
72023;PMS5003;59889;50.700;5.440;2023-02-01T04:38:54;4;4;
72023;PMS5003;59889;50.700;5.440;2023-02-01T04:41:20;3;3;
72023;PMS5003;59889;50.700;5.440;2023-02-01T04:43:45;4;4;
72023;PMS5003;59889;50.700;5.440;2023-02-01T04:46:09;4;4;
72023;PMS5003;59889;50.700;5.440;2023-02-01T04:48:35;4;3;
72023;PMS5003;59889;50.700;5.440;2023-02-01T04:51:00;5;5;
72023;PMS5003;59889;50.700;5.440;2023-02-01T04:53:25;6;6;
72023;PMS5003;59889;50.700;5.440;2023-02-01T04:55:50;3;3;
72023;PMS5003;59889;50.700;5.440;2023-02-01T04:58:15;3;3;
72023;PMS5003;59889;50.700;5.440;2023-02-01T05:00:50;2;2;
72023;PMS5003;59889;50.700;5.440;2023-02-01T05:03:05;3;3;
72023;PMS5003;59889;50.700;5.440;2023-02-01T05:05:31;4;3;
72023;PMS5003;59889;50.700;5.440;2023-02-01T05:07:55;3;3;
72023;PMS5003;59889;50.700;5.440;2023-02-01T05:10:21;3;3;
72023;PMS5003;59889;50.700;5.440;2023-02-01T05:12:46;4;4;
72023;PMS5003;59889;50.700;5.440;2023-02-01T05:15:11;5;4;
72023;PMS5003;59889;50.700;5.440;2023-02-01T05:17:41;1;1;
72023;PMS5003;59889;50.700;5.440;2023-02-01T05:20:02;4;4;
72023;PMS5003;59889;50.700;5.440;2023-02-01T05:22:27;5;4;
72023;PMS5003;59889;50.700;5.440;2023-02-01T05:24:52;2;2;
72023;PMS5003;59889;50.700;5.440;2023-02-01T05:27:17;4;4;
72023;PMS5003;59889;50.700;5.440;2023-02-01T05:29:43;3;3;
72023;PMS5003;59889;50.700;5.440;2023-02-01T05:32:09;3;3;
72023;PMS5003;59889;50.700;5.440;2023-02-01T05:34:33;3;3;
72023;PMS5003;59889;50.700;5.440;2023-02-01T05:36:58;4;4;
72023;PMS5003;59889;50.700;5.440;2023-02-01T05:39:23;3;3;
72023;PMS5003;59889;50.700;5.440;2023-02-01T05:41:48;4;4;
72023;PMS5003;59889;50.700;5.440;2023-02-01T05:44:13;3;3;
72023;PMS5003;59889;50.700;5.440;2023-02-01T05:46:38;3;3;
72023;PMS5003;59889;50.700;5.440;2023-02-01T05:49:04;3;3;
72023;PMS5003;59889;50.700;5.440;2023-02-01T05:51:29;4;4;
72023;PMS5003;59889;50.700;5.440;2023-02-01T05:53:54;4;4;
72023;PMS5003;59889;50.700;5.440;2023-02-01T05:56:19;4;4;
72023;PMS5003;59889;50.700;5.440;2023-02-01T05:58:44;5;5;
72023;PMS5003;59889;50.700;5.440;2023-02-01T06:01:09;4;2;
72023;PMS5003;59889;50.700;5.440;2023-02-01T06:03:34;3;3;
72023;PMS5003;59889;50.700;5.440;2023-02-01T06:05:59;3;3;
72023;PMS5003;59889;50.700;5.440;2023-02-01T06:08:25;4;3;
72023;PMS5003;59889;50.700;5.440;2023-02-01T06:10:50;4;3;
72023;PMS5003;59889;50.700;5.440;2023-02-01T06:13:15;3;3;
72023;PMS5003;59889;50.700;5.440;2023-02-01T06:15:40;4;4;
72023;PMS5003;59889;50.700;5.440;2023-02-01T06:18:05;3;3;
72023;PMS5003;59889;50.700;5.440;2023-02-01T06:20:30;4;4;
72023;PMS5003;59889;50.700;5.440;2023-02-01T06:22:55;5;4;
72023;PMS5003;59889;50.700;5.440;2023-02-01T06:25:20;4;4;
72023;PMS5003;59889;50.700;5.440;2023-02-01T06:27:45;4;3;
72023;PMS5003;59889;50.700;5.440;2023-02-01T06:30:11;3;3;
72023;PMS5003;59889;50.700;5.440;2023-02-01T06:32:36;4;4;
72023;PMS5003;59889;50.700;5.440;2023-02-01T06:35:01;2;2;
72023;PMS5003;59889;50.700;5.440;2023-02-01T06:37:26;2;2;
72023;PMS5003;59889;50.700;5.440;2023-02-01T06:39:51;4;3;
72023;PMS5003;59889;50.700;5.440;2023-02-01T06:42:16;3;3;
72023;PMS5003;59889;50.700;5.440;2023-02-01T06:44:41;4;4;
72023;PMS5003;59889;50.700;5.440;2023-02-01T06:47:06;4;4;
72023;PMS5003;59889;50.700;5.440;2023-02-01T06:49:31;3;3;
72023;PMS5003;59889;50.700;5.440;2023-02-01T06:51:56;4;3;
72023;PMS5003;59889;50.700;5.440;2023-02-01T06:54:22;3;3;
72023;PMS5003;59889;50.700;5.440;2023-02-01T06:56:47;4;4;
72023;PMS5003;59889;50.700;5.440;2023-02-01T06:59:12;5;4;
72023;PMS5003;59889;50.700;5.440;2023-02-01T07:01:38;5;5;
72023;PMS5003;59889;50.700;5.440;2023-02-01T07:04:02;6;4;
72023;PMS5003;59889;50.700;5.440;2023-02-01T07:06:27;3;2;
72023;PMS5003;59889;50.700;5.440;2023-02-01T07:08:52;4;4;
72023;PMS5003;59889;50.700;5.440;2023-02-01T07:11:18;3;2;
72023;PMS5003;59889;50.700;5.440;2023-02-01T07:13:43;4;3;
72023;PMS5003;59889;50.700;5.440;2023-02-01T07:16:09;4;4;
72023;PMS5003;59889;50.700;5.440;2023-02-01T07:18:33;5;5;
72023;PMS5003;59889;50.700;5.440;2023-02-01T07:20:58;4;3;
72023;PMS5003;59889;50.700;5.440;2023-02-01T07:23:23;3;2;
72023;PMS5003;59889;50.700;5.440;2023-02-01T07:25:48;6;6;
72023;PMS5003;59889;50.700;5.440;2023-02-01T07:28:13;3;3;
72023;PMS5003;59889;50.700;5.440;2023-02-01T07:30:39;3;3;
72023;PMS5003;59889;50.700;5.440;2023-02-01T07:33:03;5;4;
72023;PMS5003;59889;50.700;5.440;2023-02-01T07:35:28;4;3;
72023;PMS5003;59889;50.700;5.440;2023-02-01T07:37:54;4;4;
72023;PMS5003;59889;50.700;5.440;2023-02-01T07:40:19;6;4;
72023;PMS5003;59889;50.700;5.440;2023-02-01T07:42:44;3;3;
72023;PMS5003;59889;50.700;5.440;2023-02-01T07:45:09;3;3;
72023;PMS5003;59889;50.700;5.440;2023-02-01T07:47:34;4;4;
72023;PMS5003;59889;50.700;5.440;2023-02-01T07:49:59;4;4;
72023;PMS5003;59889;50.700;5.440;2023-02-01T07:52:27;3;3;
72023;PMS5003;59889;50.700;5.440;2023-02-01T07:54:50;3;3;
72023;PMS5003;59889;50.700;5.440;2023-02-01T07:57:14;4;3;
72023;PMS5003;59889;50.700;5.440;2023-02-01T07:59:39;6;4;
72023;PMS5003;59889;50.700;5.440;2023-02-01T08:02:05;5;4;
72023;PMS5003;59889;50.700;5.440;2023-02-01T08:04:30;2;2;
72023;PMS5003;59889;50.700;5.440;2023-02-01T08:06:55;3;3;
72023;PMS5003;59889;50.700;5.440;2023-02-01T08:09:20;3;3;
72023;PMS5003;59889;50.700;5.440;2023-02-01T08:11:46;4;4;
72023;PMS5003;59889;50.700;5.440;2023-02-01T08:14:11;5;4;
72023;PMS5003;59889;50.700;5.440;2023-02-01T08:16:36;4;4;
72023;PMS5003;59889;50.700;5.440;2023-02-01T08:19:01;2;2;
72023;PMS5003;59889;50.700;5.440;2023-02-01T08:21:28;5;4;
72023;PMS5003;59889;50.700;5.440;2023-02-01T08:23:51;2;2;
72023;PMS5003;59889;50.700;5.440;2023-02-01T08:26:17;3;3;
72023;PMS5003;59889;50.700;5.440;2023-02-01T08:28:43;3;3;
72023;PMS5003;59889;50.700;5.440;2023-02-01T08:31:07;4;4;
72023;PMS5003;59889;50.700;5.440;2023-02-01T08:33:32;4;3;
72023;PMS5003;59889;50.700;5.440;2023-02-01T08:35:57;4;3;
72023;PMS5003;59889;50.700;5.440;2023-02-01T08:38:22;2;2;
72023;PMS5003;59889;50.700;5.440;2023-02-01T08:40:47;5;3;
72023;PMS5003;59889;50.700;5.440;2023-02-01T08:43:12;5;3;
72023;PMS5003;59889;50.700;5.440;2023-02-01T08:45:39;4;4;
72023;PMS5003;59889;50.700;5.440;2023-02-01T08:48:02;3;3;
72023;PMS5003;59889;50.700;5.440;2023-02-01T08:50:27;2;2;
72023;PMS5003;59889;50.700;5.440;2023-02-01T08:52:52;6;5;
72023;PMS5003;59889;50.700;5.440;2023-02-01T08:55:18;7;4;
72023;PMS5003;59889;50.700;5.440;2023-02-01T08:57:43;4;3;
72023;PMS5003;59889;50.700;5.440;2023-02-01T09:00:09;3;3;
72023;PMS5003;59889;50.700;5.440;2023-02-01T09:02:33;4;4;
72023;PMS5003;59889;50.700;5.440;2023-02-01T09:04:58;6;4;
72023;PMS5003;59889;50.700;5.440;2023-02-01T09:07:23;6;6;
72023;PMS5003;59889;50.700;5.440;2023-02-01T09:09:48;6;5;
72023;PMS5003;59889;50.700;5.440;2023-02-01T09:12:13;3;3;
72023;PMS5003;59889;50.700;5.440;2023-02-01T09:14:38;5;4;
72023;PMS5003;59889;50.700;5.440;2023-02-01T09:17:05;4;4;
72023;PMS5003;59889;50.700;5.440;2023-02-01T09:19:29;7;4;
72023;PMS5003;59889;50.700;5.440;2023-02-01T09:21:54;4;4;
72023;PMS5003;59889;50.700;5.440;2023-02-01T09:24:19;4;4;
72023;PMS5003;59889;50.700;5.440;2023-02-01T09:26:44;4;4;
72023;PMS5003;59889;50.700;5.440;2023-02-01T09:29:09;4;3;
72023;PMS5003;59889;50.700;5.440;2023-02-01T09:31:34;5;4;
72023;PMS5003;59889;50.700;5.440;2023-02-01T09:33:59;3;3;
72023;PMS5003;59889;50.700;5.440;2023-02-01T09:36:24;4;3;
72023;PMS5003;59889;50.700;5.440;2023-02-01T09:38:49;4;4;
72023;PMS5003;59889;50.700;5.440;2023-02-01T09:41:20;6;5;
72023;PMS5003;59889;50.700;5.440;2023-02-01T09:43:41;7;5;
72023;PMS5003;59889;50.700;5.440;2023-02-01T09:46:10;4;4;
72023;PMS5003;59889;50.700;5.440;2023-02-01T09:48:31;4;4;
72023;PMS5003;59889;50.700;5.440;2023-02-01T09:50:56;5;5;
72023;PMS5003;59889;50.700;5.440;2023-02-01T09:53:23;7;4;
72023;PMS5003;59889;50.700;5.440;2023-02-01T09:55:47;7;6;
72023;PMS5003;59889;50.700;5.440;2023-02-01T09:58:13;7;6;
72023;PMS5003;59889;50.700;5.440;2023-02-01T10:00:38;5;5;
72023;PMS5003;59889;50.700;5.440;2023-02-01T10:03:02;4;4;
72023;PMS5003;59889;50.700;5.440;2023-02-01T10:05:33;3;3;
72023;PMS5003;59889;50.700;5.440;2023-02-01T10:07:56;4;3;
72023;PMS5003;59889;50.700;5.440;2023-02-01T10:10:20;4;4;
72023;PMS5003;59889;50.700;5.440;2023-02-01T10:12:50;6;4;
72023;PMS5003;59889;50.700;5.440;2023-02-01T10:15:14;4;3;
72023;PMS5003;59889;50.700;5.440;2023-02-01T10:17:39;5;4;
72023;PMS5003;59889;50.700;5.440;2023-02-01T10:20:02;5;4;
72023;PMS5003;59889;50.700;5.440;2023-02-01T10:22:27;4;3;
72023;PMS5003;59889;50.700;5.440;2023-02-01T10:24:49;4;3;
72023;PMS5003;59889;50.700;5.440;2023-02-01T10:27:16;5;4;
72023;PMS5003;59889;50.700;5.440;2023-02-01T10:29:42;4;3;
72023;PMS5003;59889;50.700;5.440;2023-02-01T10:32:09;5;4;
72023;PMS5003;59889;50.700;5.440;2023-02-01T10:34:31;3;3;
72023;PMS5003;59889;50.700;5.440;2023-02-01T10:36:55;4;3;
72023;PMS5003;59889;50.700;5.440;2023-02-01T10:39:20;5;4;
72023;PMS5003;59889;50.700;5.440;2023-02-01T10:41:45;5;5;
72023;PMS5003;59889;50.700;5.440;2023-02-01T10:44:11;6;5;
72023;PMS5003;59889;50.700;5.440;2023-02-01T10:46:36;7;4;
72023;PMS5003;59889;50.700;5.440;2023-02-01T10:49:02;8;5;
72023;PMS5003;59889;50.700;5.440;2023-02-01T10:51:27;6;5;
72023;PMS5003;59889;50.700;5.440;2023-02-01T10:53:53;6;5;
72023;PMS5003;59889;50.700;5.440;2023-02-01T10:56:21;5;5;
72023;PMS5003;59889;50.700;5.440;2023-02-01T10:58:43;7;5;
72023;PMS5003;59889;50.700;5.440;2023-02-01T11:01:08;5;4;
72023;PMS5003;59889;50.700;5.440;2023-02-01T11:03:34;10;8;
72023;PMS5003;59889;50.700;5.440;2023-02-01T11:05:58;8;7;
72023;PMS5003;59889;50.700;5.440;2023-02-01T11:08:23;10;9;
72023;PMS5003;59889;50.700;5.440;2023-02-01T11:10:56;10;8;
72023;PMS5003;59889;50.700;5.440;2023-02-01T11:13:14;10;9;
72023;PMS5003;59889;50.700;5.440;2023-02-01T11:15:38;11;8;
72023;PMS5003;59889;50.700;5.440;2023-02-01T11:18:12;10;9;
72023;PMS5003;59889;50.700;5.440;2023-02-01T11:20:33;13;12;
72023;PMS5003;59889;50.700;5.440;2023-02-01T11:22:54;12;11;
72023;PMS5003;59889;50.700;5.440;2023-02-01T11:25:20;9;9;
72023;PMS5003;59889;50.700;5.440;2023-02-01T11:27:44;12;10;
72023;PMS5003;59889;50.700;5.440;2023-02-01T11:30:14;11;11;
72023;PMS5003;59889;50.700;5.440;2023-02-01T11:32:34;15;14;
72023;PMS5003;59889;50.700;5.440;2023-02-01T11:35:01;16;16;
72023;PMS5003;59889;50.700;5.440;2023-02-01T11:37:26;11;11;
72023;PMS5003;59889;50.700;5.440;2023-02-01T11:39:54;13;12;
72023;PMS5003;59889;50.700;5.440;2023-02-01T11:42:15;10;10;
72023;PMS5003;59889;50.700;5.440;2023-02-01T11:44:41;11;11;
72023;PMS5003;59889;50.700;5.440;2023-02-01T11:49:31;13;13;
72023;PMS5003;59889;50.700;5.440;2023-02-01T11:54:30;11;11;
72023;PMS5003;59889;50.700;5.440;2023-02-01T11:56:48;13;13;
72023;PMS5003;59889;50.700;5.440;2023-02-01T11:59:14;16;15;
72023;PMS5003;59889;50.700;5.440;2023-02-01T12:01:40;14;13;
72023;PMS5003;59889;50.700;5.440;2023-02-01T12:04:07;11;9;
72023;PMS5003;59889;50.700;5.440;2023-02-01T12:06:29;13;12;
72023;PMS5003;59889;50.700;5.440;2023-02-01T12:09:04;14;13;
72023;PMS5003;59889;50.700;5.440;2023-02-01T12:11:21;13;12;
72023;PMS5003;59889;50.700;5.440;2023-02-01T12:13:44;12;12;
72023;PMS5003;59889;50.700;5.440;2023-02-01T12:16:11;12;11;
72023;PMS5003;59889;50.700;5.440;2023-02-01T12:18:37;12;11;
72023;PMS5003;59889;50.700;5.440;2023-02-01T12:21:03;11;11;
72023;PMS5003;59889;50.700;5.440;2023-02-01T12:25:56;13;12;
72023;PMS5003;59889;50.700;5.440;2023-02-01T12:28:17;13;12;
72023;PMS5003;59889;50.700;5.440;2023-02-01T12:30:58;12;11;
72023;PMS5003;59889;50.700;5.440;2023-02-01T12:33:06;12;11;
72023;PMS5003;59889;50.700;5.440;2023-02-01T12:35:38;9;9;
72023;PMS5003;59889;50.700;5.440;2023-02-01T12:38:00;10;10;
72023;PMS5003;59889;50.700;5.440;2023-02-01T12:40:21;13;10;
72023;PMS5003;59889;50.700;5.440;2023-02-01T12:42:45;11;10;
72023;PMS5003;59889;50.700;5.440;2023-02-01T12:45:11;11;10;
72023;PMS5003;59889;50.700;5.440;2023-02-01T12:47:36;10;10;
72023;PMS5003;59889;50.700;5.440;2023-02-01T12:50:01;11;9;
72023;PMS5003;59889;50.700;5.440;2023-02-01T12:52:27;11;10;
72023;PMS5003;59889;50.700;5.440;2023-02-01T12:54:53;10;10;
72023;PMS5003;59889;50.700;5.440;2023-02-01T12:57:17;10;10;
72023;PMS5003;59889;50.700;5.440;2023-02-01T12:59:44;9;9;
72023;PMS5003;59889;50.700;5.440;2023-02-01T13:02:11;10;10;
72023;PMS5003;59889;50.700;5.440;2023-02-01T13:04:33;10;9;
72023;PMS5003;59889;50.700;5.440;2023-02-01T13:07:00;9;8;
72023;PMS5003;59889;50.700;5.440;2023-02-01T13:09:25;11;10;
72023;PMS5003;59889;50.700;5.440;2023-02-01T13:11:48;10;9;
72023;PMS5003;59889;50.700;5.440;2023-02-01T13:14:17;9;9;
72023;PMS5003;59889;50.700;5.440;2023-02-01T13:16:40;9;9;
72023;PMS5003;59889;50.700;5.440;2023-02-01T13:19:08;11;9;
72023;PMS5003;59889;50.700;5.440;2023-02-01T13:21:31;9;8;
72023;PMS5003;59889;50.700;5.440;2023-02-01T13:23:55;8;7;
72023;PMS5003;59889;50.700;5.440;2023-02-01T13:26:20;10;8;
72023;PMS5003;59889;50.700;5.440;2023-02-01T13:28:45;8;8;
72023;PMS5003;59889;50.700;5.440;2023-02-01T13:33:40;9;9;
72023;PMS5003;59889;50.700;5.440;2023-02-01T13:36:05;8;8;
72023;PMS5003;59889;50.700;5.440;2023-02-01T13:38:32;9;9;
72023;PMS5003;59889;50.700;5.440;2023-02-01T13:40:53;8;8;
72023;PMS5003;59889;50.700;5.440;2023-02-01T13:43:17;9;8;
72023;PMS5003;59889;50.700;5.440;2023-02-01T13:45:42;8;8;
72023;PMS5003;59889;50.700;5.440;2023-02-01T13:48:06;8;7;
72023;PMS5003;59889;50.700;5.440;2023-02-01T13:50:32;8;7;
72023;PMS5003;59889;50.700;5.440;2023-02-01T13:52:57;9;8;
72023;PMS5003;59889;50.700;5.440;2023-02-01T13:55:24;8;7;
72023;PMS5003;59889;50.700;5.440;2023-02-01T13:57:47;6;6;
72023;PMS5003;59889;50.700;5.440;2023-02-01T14:02:46;9;9;
72023;PMS5003;59889;50.700;5.440;2023-02-01T14:05:03;8;7;
72023;PMS5003;59889;50.700;5.440;2023-02-01T14:07:27;10;10;
72023;PMS5003;59889;50.700;5.440;2023-02-01T14:09:52;7;6;
72023;PMS5003;59889;50.700;5.440;2023-02-01T14:14:43;7;6;
72023;PMS5003;59889;50.700;5.440;2023-02-01T14:19:33;6;6;
72023;PMS5003;59889;50.700;5.440;2023-02-01T14:21:59;9;7;
72023;PMS5003;59889;50.700;5.440;2023-02-01T14:24:24;8;6;
72023;PMS5003;59889;50.700;5.440;2023-02-01T14:26:49;8;8;
72023;PMS5003;59889;50.700;5.440;2023-02-01T14:29:22;7;7;
72023;PMS5003;59889;50.700;5.440;2023-02-01T14:31:41;7;6;
72023;PMS5003;59889;50.700;5.440;2023-02-01T14:34:11;7;7;
72023;PMS5003;59889;50.700;5.440;2023-02-01T14:38:54;6;6;
72023;PMS5003;59889;50.700;5.440;2023-02-01T14:41:26;7;7;
72023;PMS5003;59889;50.700;5.440;2023-02-01T14:43:49;5;5;
72023;PMS5003;59889;50.700;5.440;2023-02-01T14:46:11;6;6;
72023;PMS5003;59889;50.700;5.440;2023-02-01T14:48:41;8;6;
72023;PMS5003;59889;50.700;5.440;2023-02-01T14:51:00;7;7;
72023;PMS5003;59889;50.700;5.440;2023-02-01T14:53:26;6;6;
72023;PMS5003;59889;50.700;5.440;2023-02-01T14:55:51;5;5;
72023;PMS5003;59889;50.700;5.440;2023-02-01T14:58:18;6;6;
72023;PMS5003;59889;50.700;5.440;2023-02-01T15:00:46;7;7;
72023;PMS5003;59889;50.700;5.440;2023-02-01T15:03:15;8;6;
72023;PMS5003;59889;50.700;5.440;2023-02-01T15:05:32;6;6;
72023;PMS5003;59889;50.700;5.440;2023-02-01T15:07:57;9;8;
72023;PMS5003;59889;50.700;5.440;2023-02-01T15:10:22;10;7;
72023;PMS5003;59889;50.700;5.440;2023-02-01T15:12:47;7;6;
72023;PMS5003;59889;50.700;5.440;2023-02-01T15:15:13;6;6;
72023;PMS5003;59889;50.700;5.440;2023-02-01T15:17:37;7;6;
72023;PMS5003;59889;50.700;5.440;2023-02-01T15:20:03;5;5;
72023;PMS5003;59889;50.700;5.440;2023-02-01T15:22:28;5;5;
72023;PMS5003;59889;50.700;5.440;2023-02-01T15:24:52;6;6;
72023;PMS5003;59889;50.700;5.440;2023-02-01T15:27:17;4;4;
72023;PMS5003;59889;50.700;5.440;2023-02-01T15:29:43;4;4;
72023;PMS5003;59889;50.700;5.440;2023-02-01T15:32:15;6;6;
72023;PMS5003;59889;50.700;5.440;2023-02-01T15:37:04;6;6;
72023;PMS5003;59889;50.700;5.440;2023-02-01T15:39:24;5;5;
72023;PMS5003;59889;50.700;5.440;2023-02-01T15:41:49;5;5;
72023;PMS5003;59889;50.700;5.440;2023-02-01T15:44:16;6;6;
72023;PMS5003;59889;50.700;5.440;2023-02-01T15:46:39;6;5;
72023;PMS5003;59889;50.700;5.440;2023-02-01T15:49:04;4;4;
72023;PMS5003;59889;50.700;5.440;2023-02-01T15:51:30;6;6;
72023;PMS5003;59889;50.700;5.440;2023-02-01T15:53:55;4;4;
72023;PMS5003;59889;50.700;5.440;2023-02-01T15:56:21;5;5;
72023;PMS5003;59889;50.700;5.440;2023-02-01T15:58:46;5;4;
72023;PMS5003;59889;50.700;5.440;2023-02-01T16:01:10;5;5;
72023;PMS5003;59889;50.700;5.440;2023-02-01T16:03:35;5;5;
72023;PMS5003;59889;50.700;5.440;2023-02-01T16:06:01;4;4;
72023;PMS5003;59889;50.700;5.440;2023-02-01T16:08:25;6;5;
72023;PMS5003;59889;50.700;5.440;2023-02-01T16:10:51;5;5;
72023;PMS5003;59889;50.700;5.440;2023-02-01T16:13:15;6;5;
72023;PMS5003;59889;50.700;5.440;2023-02-01T16:15:40;4;4;
72023;PMS5003;59889;50.700;5.440;2023-02-01T16:18:05;3;3;
72023;PMS5003;59889;50.700;5.440;2023-02-01T16:20:30;6;6;
72023;PMS5003;59889;50.700;5.440;2023-02-01T16:22:56;5;4;
72023;PMS5003;59889;50.700;5.440;2023-02-01T16:25:21;6;5;
72023;PMS5003;59889;50.700;5.440;2023-02-01T16:27:46;6;6;
72023;PMS5003;59889;50.700;5.440;2023-02-01T16:30:11;8;8;
72023;PMS5003;59889;50.700;5.440;2023-02-01T16:32:36;4;4;
72023;PMS5003;59889;50.700;5.440;2023-02-01T16:35:01;5;4;
72023;PMS5003;59889;50.700;5.440;2023-02-01T16:37:26;8;5;
72023;PMS5003;59889;50.700;5.440;2023-02-01T16:39:52;4;4;
72023;PMS5003;59889;50.700;5.440;2023-02-01T16:42:17;4;4;
72023;PMS5003;59889;50.700;5.440;2023-02-01T16:44:42;4;4;
72023;PMS5003;59889;50.700;5.440;2023-02-01T16:47:11;5;5;
72023;PMS5003;59889;50.700;5.440;2023-02-01T16:49:33;6;4;
72023;PMS5003;59889;50.700;5.440;2023-02-01T16:51:58;5;5;
72023;PMS5003;59889;50.700;5.440;2023-02-01T16:54:23;7;4;
72023;PMS5003;59889;50.700;5.440;2023-02-01T16:56:48;4;4;
72023;PMS5003;59889;50.700;5.440;2023-02-01T16:59:14;4;4;
72023;PMS5003;59889;50.700;5.440;2023-02-01T17:01:41;4;4;
72023;PMS5003;59889;50.700;5.440;2023-02-01T17:04:04;5;5;
72023;PMS5003;59889;50.700;5.440;2023-02-01T17:06:29;4;4;